International Virtual Aviation Organisation

Russian Federation and Kazakhstan MCD

 

Карточка аэропорта UHPP

Внимание!
Информация на этой странице в стадии наполнения.
Если вы не увидели какой-то информации, или заметили неточность - пожалуйста сообщите нам!
Спасибо!
Команда RU-STAFF
Название аэропортаЕлизово
Название аэропорта (англ.)Yelizovo
Превышение131 ft. (39.9 m.)
Координаты53°10.002', 158°27.24'
Высота перехода2400m
Эшелон переходаQFE>756:FL90;756>QFE>729:FL100;729>QFE:FL110
Коды ответчика6630-6657
Зона ОрВДПетропавловск-Камчатский РПИ (UHPP)
Данные METARUHPP 091400Z VRB01MPS 9999 BKN047 11/11 Q1003 R34L/CLRD70 NOSIG RMK QFE748/0998
Проноз погоды (TAF)UERR 091100Z 0912/1012 03003G08MPS 9999 SCT033CB BKN100= UHPP 091033Z 0912/1018 35003G12MPS 9999 SCT030CB TEMPO 0912/0922 0700 -SHRA FG VV002 FM100000 17003G12MPS 9999 BKN030CB TEMPO 1002/1010 -SHRA BKN020CB TEMPO 1010/1018 0900 FG VV003
NOTAMshow/hide NOTAM
AWOS   TABLE

Информация о ВПП

ВПП Длина ВПП (м.) Покрытие Курс ВПП Частота ILS
34R3400Бетон344110.3
16L3400Бетон164 
34L2500Бетон344 
16R2500Бетон164 

Диспетчерские позиции

Позывной Наименование органа УВД Частота
UHPP_TWRПетропавловск - Старт118.100
UHPP_R_APPПетропавловск - Круг119.400



Спутниковое изображение